Latest Weather Observations for Karratha

IDW60801

Issued at 10:33 am WST Tuesday 22 September 2020 (issued every 10 minutes, with the page automatically refreshed every 10 minutes)

About weather observations | Map of weather stations | Latest weather observations for WA | Other Formats
Station Details ID: 004083 Name: KARRATHA AERO Lat: -20.71 Lon: 116.77 Height: 5.3 m
Data from the previous 72 hours. | See also: Recent months at Karratha
Date/Time
WST
Temp
°C
App
Temp
°C
Dew
Point
°C
Rel
Hum
%
Delta-T
°C
Wind Press
QNH
hPa
Press
MSL
hPa
Rain since
9am
mm
Dir  Spd
km/h
Gust
km/h
Spd
kts
Gust
kts
22/10:30am 29.6 21.5 1.1 16 13.8 E 33 43 18 23 1015.1 1015.1 0.0
22/10:00am 29.2 21.1 -0.1 15 13.9 E 32 39 17 21 1015.4 1015.4 0.0
22/09:30am 28.6 20.7 1.2 17 13.2 E 32 41 17 22 1015.7 1015.7 0.0
22/09:00am 27.5 19.5 0.3 17 12.8 E 32 39 17 21 1015.7 1015.7 0.0
22/08:30am 27.0 18.5 0.7 18 12.4 E 35 43 19 23 1015.5 1015.5 0.0
22/08:00am 25.1 18.0 -0.9 18 11.8 ESE 26 33 14 18 1015.4 1015.4 0.0
22/07:30am 23.7 19.4 0.7 22 10.6 E 13 22 7 12 1015.2 1015.2 0.0
22/07:00am 20.0 18.3 7.7 45 6.3 NE 6 7 3 4 1014.9 1014.9 0.0
22/06:30am 16.2 14.3 6.9 54 4.6 E 6 7 3 4 1014.8 1014.8 0.0
22/06:00am 15.5 13.3 6.2 54 4.5 E 7 9 4 5 1014.3 1014.3 0.0
22/05:30am 17.0 14.9 8.4 57 4.4 E 9 11 5 6 1014.0 1014.0 0.0
22/05:00am 16.6 14.4 9.3 62 3.8 E 11 11 6 6 1013.7 1013.7 0.0
22/04:30am 15.7 13.3 8.7 63 3.6 ESE 11 13 6 7 1013.3 1013.3 0.0
22/04:00am 16.1 14.8 9.8 66 3.3 E 7 9 4 5 1013.1 1013.1 0.0
22/03:30am 16.4 15.1 9.8 65 3.5 ESE 7 9 4 5 1013.0 1013.0 0.0
22/03:00am 16.9 15.8 10.7 67 3.3 E 7 7 4 4 1013.1 1013.1 0.0
22/02:30am 17.9 17.2 11.5 66 3.5 SE 6 7 3 4 1013.1 1013.1 0.0
22/02:00am 18.7 19.1 11.3 62 4.0 CALM 0 0 0 0 1013.2 1013.2 0.0
22/01:30am 19.5 18.6 11.5 60 4.4 WSW 7 9 4 5 1013.3 1013.3 0.0
22/01:00am 19.6 18.5 11.9 61 4.3 WSW 9 11 5 6 1013.4 1013.4 0.0
22/12:30am 19.1 19.0 12.1 64 3.9 SW 4 7 2 4 1013.7 1013.7 0.0
22/12:00am 19.9 18.8 11.9 60 4.4 SW 9 13 5 7 1013.9 1013.9 0.0
 
Date/Time
WST
Temp
°C
App
Temp
°C
Dew
Point
°C
Rel
Hum
%
Delta-T
°C
Wind Press
QNH
hPa
Press
MSL
hPa
Rain since
9am
mm
Dir  Spd
km/h
Gust
km/h
Spd
kts
Gust
kts
21/11:30pm 21.1 19.6 12.0 56 5.1 WSW 11 15 6 8 1014.0 1014.0 0.0
21/11:00pm 21.8 19.2 13.2 58 4.9 WSW 19 22 10 12 1014.2 1014.2 0.0
21/10:30pm 22.0 19.3 13.6 59 4.9 WSW 20 24 11 13 1014.3 1014.3 0.0
21/10:00pm 22.1 19.8 12.9 56 5.3 WSW 17 20 9 11 1014.5 1014.5 0.0
21/09:30pm 22.3 19.7 12.0 52 5.8 WSW 17 22 9 12 1014.5 1014.5 0.0
21/09:00pm 22.6 20.5 12.3 52 5.8 WSW 15 19 8 10 1014.5 1014.5 0.0
21/08:30pm 23.7 21.1 13.3 52 6.0 WSW 19 20 10 11 1014.3 1014.3 0.0
21/08:00pm 24.1 21.1 12.1 47 6.8 WSW 19 24 10 13 1014.2 1014.2 0.0
21/07:30pm 24.2 20.2 11.9 46 7.0 WSW 24 28 13 15 1013.9 1013.9 0.0
21/07:00pm 24.5 20.7 12.5 47 6.9 W 24 30 13 16 1013.7 1013.7 0.0
21/06:30pm 25.2 20.2 11.0 41 8.0 W 28 32 15 17 1013.4 1013.4 0.0
21/06:00pm 25.6 20.8 11.7 42 7.9 W 28 33 15 18 1013.2 1013.2 0.0
21/05:30pm 27.0 22.6 14.1 45 7.7 W 30 35 16 19 1012.7 1012.7 0.0
21/05:26pm 27.7 23.7 12.9 40 8.7 W 26 35 14 19 1012.6 1012.6 0.0
21/05:00pm 28.6 24.3 1.2 17 13.2 N 13 17 7 9 1012.5 1012.5 0.0
21/04:30pm 29.4 24.3 1.0 16 13.7 N 17 20 9 11 1012.4 1012.4 0.0
21/04:00pm 28.7 24.3 6.7 25 11.7 NNE 19 22 10 12 1012.3 1012.3 0.0
21/03:30pm 29.0 24.0 6.4 24 12.0 NNE 22 28 12 15 1012.2 1012.2 0.0
21/03:00pm 28.4 23.8 8.1 28 11.0 NNE 22 28 12 15 1012.4 1012.4 0.0
21/02:30pm 28.3 23.9 9.1 30 10.6 NNE 22 30 12 16 1012.8 1012.8 0.0
21/02:00pm 28.2 23.2 8.0 28 10.9 NNE 24 28 13 15 1013.0 1013.0 0.0
21/01:30pm 28.7 24.0 7.9 27 11.3 NNE 22 30 12 16 1013.4 1013.4 0.0
21/01:00pm 28.9 23.6 6.9 25 11.7 NE 24 32 13 17 1013.8 1013.8 0.0
21/12:30pm 29.4 24.2 2.6 18 13.3 NNE 19 24 10 13 1014.2 1014.2 0.0
21/12:00pm 29.2 22.8 -2.0 13 14.3 ENE 22 30 12 16 1014.7 1014.7 0.0
21/11:30am 29.0 21.9 -1.2 14 14.0 ENE 26 33 14 18 1015.0 1015.0 0.0
21/11:00am 28.7 21.7 -3.5 12 14.3 ENE 24 32 13 17 1015.3 1015.3 0.0
21/10:30am 28.1 21.5 -2.9 13 13.9 ENE 22 30 12 16 1015.7 1015.7 0.0
21/10:00am 27.7 20.6 -4.3 12 13.9 ENE 24 32 13 17 1015.9 1015.9 0.0
21/09:30am 26.0 20.0 -1.7 16 12.4 ENE 20 26 11 14 1016.2 1016.2 0.0
21/09:00am 25.4 19.3 -2.2 16 12.2 E 20 24 11 13 1016.3 1016.3 0.0
21/08:30am 25.2 18.9 -6.2 12 12.9 ESE 19 26 10 14 1016.4 1016.4 0.0
21/08:00am 23.9 18.9 -4.3 15 11.8 SE 13 17 7 9 1016.3 1016.3 0.0
21/07:30am 21.4 16.1 -3.9 18 10.5 SSE 15 20 8 11 1015.9 1015.9 0.0
21/07:00am 18.5 13.6 -3.0 23 8.8 S 13 15 7 8 1015.5 1015.5 0.0
21/06:30am 16.0 10.7 -3.5 26 7.7 S 15 17 8 9 1015.1 1015.1 0.0
21/06:00am 15.2 10.3 -3.6 27 7.3 S 13 15 7 8 1014.7 1014.7 0.0
21/05:30am 16.4 11.0 -4.2 24 8.1 S 15 17 8 9 1014.2 1014.2 0.0
21/05:00am 16.4 11.9 -3.1 26 7.8 S 11 13 6 7 1013.6 1013.6 0.0
21/04:30am 16.8 11.8 -3.9 24 8.2 S 13 15 7 8 1013.3 1013.3 0.0
21/04:00am 16.9 12.0 -3.8 24 8.2 S 13 15 7 8 1013.1 1013.1 0.0
21/03:30am 18.0 13.1 -3.4 23 8.6 SSW 13 15 7 8 1012.9 1012.9 0.0
21/03:00am 18.3 13.7 -3.8 22 8.9 S 11 13 6 7 1012.9 1012.9 0.0
21/02:30am 19.7 15.5 -3.9 20 9.6 SSW 9 11 5 6 1012.9 1012.9 0.0
21/02:00am 20.2 16.0 -4.1 19 9.9 SSW 9 11 5 6 1013.0 1013.0 0.0
21/01:30am 21.0 16.5 -3.5 19 10.2 SSW 11 11 6 6 1012.9 1012.9 0.0
21/01:00am 21.4 16.9 -3.1 19 10.3 SW 11 13 6 7 1012.8 1012.8 0.0
21/12:30am 22.2 17.7 -3.2 18 10.7 SSW 11 13 6 7 1013.1 1013.1 0.0
21/12:00am 22.1 18.4 -3.3 18 10.7 SSW 7 11 4 6 1013.1 1013.1 0.0
 
Date/Time
WST
Temp
°C
App
Temp
°C
Dew
Point
°C
Rel
Hum
%
Delta-T
°C
Wind Press
QNH
hPa
Press
MSL
hPa
Rain since
9am
mm
Dir  Spd
km/h
Gust
km/h
Spd
kts
Gust
kts
20/11:30pm 22.7 18.5 -3.6 17 11.1 SSW 9 11 5 6 1013.2 1013.2 0.0
20/11:00pm 23.2 18.6 -4.0 16 11.4 SSW 11 15 6 8 1013.3 1013.3 0.0
20/10:30pm 24.3 18.6 -4.0 15 12.0 SSW 17 20 9 11 1013.3 1013.3 0.0
20/10:00pm 23.4 18.1 -3.8 16 11.5 SW 15 19 8 10 1013.3 1013.3 0.0
20/09:30pm 23.9 18.2 -3.4 16 11.7 SW 17 20 9 11 1013.1 1013.1 0.0
20/09:00pm 25.1 19.0 -4.2 14 12.5 SW 19 22 10 12 1012.9 1012.9 0.0
20/08:30pm 26.3 20.8 1.6 20 11.8 SW 20 24 11 13 1012.6 1012.6 0.0
20/08:00pm 27.3 22.0 3.1 21 12.0 WSW 20 24 11 13 1012.2 1012.2 0.0
20/07:30pm 27.8 23.0 5.4 24 11.6 WSW 20 22 11 12 1011.8 1011.8 0.0
20/07:00pm 27.9 25.2 13.4 40 8.6 WSW 20 24 11 13 1011.3 1011.3 0.0
20/06:30pm 27.7 25.9 17.8 54 6.3 W 24 30 13 16 1010.8 1010.8 0.0
20/06:00pm 27.8 25.2 17.9 54 6.3 W 28 33 15 18 1010.6 1010.6 0.0
20/05:30pm 28.1 24.3 17.3 52 6.8 W 33 44 18 24 1010.4 1010.4 0.0
20/05:00pm 29.3 25.0 15.4 42 8.5 W 32 39 17 21 1010.3 1010.3 0.0
20/04:30pm 29.4 25.5 14.4 40 9.1 WNW 28 35 15 19 1010.3 1010.3 0.0
20/04:00pm 29.4 26.1 16.9 47 7.9 WNW 30 37 16 20 1010.4 1010.4 0.0
20/03:30pm 29.4 25.7 15.9 44 8.3 WNW 30 39 16 21 1010.6 1010.6 0.0
20/03:00pm 30.3 26.2 16.0 42 8.9 W 32 41 17 22 1010.7 1010.7 0.0
20/02:30pm 30.2 26.2 16.2 42 8.7 W 32 39 17 21 1011.0 1011.0 0.0
20/02:00pm 30.9 26.5 14.1 36 10.2 W 30 37 16 20 1011.3 1011.3 0.0
20/01:30pm 30.7 26.9 13.5 35 10.3 WNW 26 32 14 17 1011.6 1011.6 0.0
20/01:00pm 31.1 27.7 12.5 32 11.0 WNW 22 30 12 16 1012.1 1012.1 0.0
20/12:30pm 31.5 27.8 10.2 27 12.2 WNW 20 28 11 15 1012.6 1012.6 0.0
20/12:00pm 30.8 26.1 9.1 26 12.1 W 24 30 13 16 1013.0 1013.0 0.0
20/11:30am 30.7 26.7 9.0 26 12.1 WNW 20 28 11 15 1013.4 1013.4 0.0
20/11:00am 30.2 26.4 9.1 27 11.8 W 19 24 10 13 1013.8 1013.8 0.0
20/10:30am 29.7 26.9 8.7 27 11.6 SW 13 19 7 10 1014.0 1014.0 0.0
20/10:00am 29.2 26.0 9.9 30 10.8 SSE 17 24 9 13 1014.1 1014.1 0.0
20/09:30am 28.0 24.1 9.3 31 10.3 SSE 20 26 11 14 1014.2 1014.2 0.0
20/09:00am 27.1 22.6 9.9 34 9.6 SSE 24 30 13 16 1014.3 1014.3 0.0
20/08:30am 26.1 21.5 9.5 35 9.1 SSE 24 32 13 17 1014.2 1014.2 0.0
20/08:00am 25.0 20.7 9.3 37 8.5 S 22 30 12 16 1014.1 1014.1 0.0
20/07:30am 22.8 20.1 10.3 45 6.8 SW 15 19 8 10 1013.9 1013.9 0.0
20/07:00am 21.1 18.7 11.4 54 5.4 SW 15 19 8 10 1013.6 1013.6 0.0
20/06:30am 20.0 18.1 13.0 64 4.0 WSW 15 15 8 8 1013.2 1013.2 0.0
20/06:00am 19.7 18.3 13.4 67 3.6 WSW 13 17 7 9 1012.7 1012.7 0.0
20/05:30am 20.1 18.1 14.0 68 3.5 WSW 17 20 9 11 1012.5 1012.5 0.0
20/05:00am 20.2 18.1 14.6 70 3.3 WSW 19 20 10 11 1012.0 1012.0 0.0
20/04:30am 20.5 19.1 15.5 73 3.0 WSW 17 19 9 10 1011.6 1011.6 0.0
20/04:00am 21.5 19.9 16.0 71 3.3 WSW 19 24 10 13 1011.3 1011.3 0.0
20/03:30am 22.1 20.7 16.6 71 3.3 WSW 19 24 10 13 1011.4 1011.4 0.0
20/03:00am 22.2 20.7 16.7 71 3.4 WSW 20 24 11 13 1011.4 1011.4 0.0
20/02:30am 22.3 20.8 16.8 71 3.4 WSW 20 26 11 14 1011.5 1011.5 0.0
20/02:00am 22.6 20.6 17.5 73 3.2 WSW 24 30 13 16 1011.6 1011.6 0.0
20/01:30am 22.7 20.7 18.3 76 2.8 WSW 26 30 14 16 1011.7 1011.7 0.0
20/01:00am 22.8 20.7 18.1 75 2.9 WSW 26 32 14 17 1011.7 1011.7 0.0
20/12:30am 23.2 20.8 18.3 74 3.1 WSW 28 33 15 18 1012.1 1012.1 0.0
20/12:00am 23.5 21.3 18.6 74 3.1 WSW 28 35 15 19 1012.4 1012.4 0.0
 
Date/Time
WST
Temp
°C
App
Temp
°C
Dew
Point
°C
Rel
Hum
%
Delta-T
°C
Wind Press
QNH
hPa
Press
MSL
hPa
Rain since
9am
mm
Dir  Spd
km/h
Gust
km/h
Spd
kts
Gust
kts
19/11:30pm 23.5 21.8 19.8 80 2.4 WSW 28 33 15 18 1012.7 1012.7 0.0
19/11:00pm 23.6 22.0 20.1 81 2.3 WSW 28 35 15 19 1013.0 1013.0 0.0
19/10:30pm 23.8 22.1 20.5 82 2.1 WSW 30 35 16 19 1013.2 1013.2 0.0
19/10:00pm 23.9 22.6 20.6 82 2.2 WSW 28 33 15 18 1013.2 1013.2 0.0
19/09:30pm 24.1 22.8 20.6 81 2.3 WSW 28 35 15 19 1013.4 1013.4 0.0
19/09:00pm 24.2 22.8 20.5 80 2.4 WSW 28 35 15 19 1013.3 1013.3 0.0
19/08:30pm 24.4 23.0 20.5 79 2.5 WSW 28 33 15 18 1013.0 1013.0 0.0
19/08:00pm 24.5 22.3 20.4 78 2.7 WSW 32 37 17 20 1012.7 1012.7 0.0
19/07:30pm 24.9 22.1 20.2 75 3.1 W 35 43 19 23 1012.2 1012.2 0.0
19/07:00pm 25.1 22.7 20.4 75 3.1 W 33 39 18 21 1011.8 1011.8 0.0
19/06:30pm 25.3 22.9 20.3 74 3.3 W 33 43 18 23 1011.5 1011.5 0.0
19/06:00pm 25.9 23.1 20.2 71 3.7 W 35 39 19 21 1011.2 1011.2 0.0
19/05:30pm 27.1 24.2 18.9 61 5.3 W 32 37 17 20 1010.9 1010.9 0.0
19/05:00pm 27.9 24.6 18.3 56 6.1 W 33 39 18 21 1010.7 1010.7 0.0
19/04:30pm 29.5 25.7 16.7 46 8.0 W 32 37 17 20 1010.6 1010.6 0.0
19/04:00pm 29.8 26.6 17.3 47 7.9 W 30 37 16 20 1010.6 1010.6 0.0
19/03:30pm 30.3 26.1 15.6 41 9.1 W 32 39 17 21 1010.4 1010.4 0.0
19/03:00pm 31.0 25.8 13.3 34 10.6 W 33 39 18 21 1010.5 1010.5 0.0
19/02:30pm 30.5 26.7 17.2 44 8.4 W 33 39 18 21 1010.8 1010.8 0.0
19/02:00pm 30.3 27.7 18.7 50 7.5 WNW 30 35 16 19 1011.0 1011.0 0.0
19/01:30pm 29.7 27.1 19.4 54 6.7 WNW 32 39 17 21 1011.2 1011.2 0.0
19/01:00pm 28.9 26.2 19.2 55 6.3 WNW 32 41 17 22 1011.5 1011.5 0.0
19/12:30pm 29.9 27.0 18.0 48 7.6 NW 30 35 16 19 1011.8 1011.8 0.0
19/12:00pm 30.7 27.8 13.9 36 10.1 WNW 22 26 12 14 1012.0 1012.0 0.0
19/11:30am 30.6 28.5 15.1 39 9.5 W 20 26 11 14 1012.4 1012.4 0.0
19/11:00am 29.5 26.6 14.1 39 9.3 W 22 28 12 15 1012.9 1012.9 0.0

Other formats

Comma delimited format used in spreadsheet applications
http://www.bom.gov.au/fwo/IDW60801/IDW60801.95307.axf

JavaScript Object Notation format (JSON) in row-major order
http://www.bom.gov.au/fwo/IDW60801/IDW60801.95307.json

Data quality

Most of these data are generated automatically and are frequently updated. Quality checks on data are not normally performed. It is possible for incorrect values to appear. Refer to information at About Latest Weather Observations and please check the disclaimer before using these data.